sensor_id;sensor_type;location;lat;lon;timestamp;temperature;humidity
51637;DHT22;37713;53.254;6.460;2023-02-01T00:00:04;5.50;99.90
51637;DHT22;37713;53.254;6.460;2023-02-01T00:02:30;5.50;99.90
51637;DHT22;37713;53.254;6.460;2023-02-01T00:04:55;5.50;99.90
51637;DHT22;37713;53.254;6.460;2023-02-01T00:07:21;5.50;99.90
51637;DHT22;37713;53.254;6.460;2023-02-01T00:09:47;5.50;99.90
51637;DHT22;37713;53.254;6.460;2023-02-01T00:12:13;5.50;99.90
51637;DHT22;37713;53.254;6.460;2023-02-01T00:14:39;5.40;99.90
51637;DHT22;37713;53.254;6.460;2023-02-01T00:17:06;5.40;99.90
51637;DHT22;37713;53.254;6.460;2023-02-01T00:19:33;5.40;99.90
51637;DHT22;37713;53.254;6.460;2023-02-01T00:21:59;5.50;99.90
51637;DHT22;37713;53.254;6.460;2023-02-01T00:24:25;5.50;99.90
51637;DHT22;37713;53.254;6.460;2023-02-01T00:26:51;5.50;99.90
51637;DHT22;37713;53.254;6.460;2023-02-01T00:29:19;5.50;99.90
51637;DHT22;37713;53.254;6.460;2023-02-01T00:31:46;5.50;99.90
51637;DHT22;37713;53.254;6.460;2023-02-01T00:34:13;5.50;99.90
51637;DHT22;37713;53.254;6.460;2023-02-01T00:36:40;5.60;99.90
51637;DHT22;37713;53.254;6.460;2023-02-01T00:39:06;5.60;99.90
51637;DHT22;37713;53.254;6.460;2023-02-01T00:41:32;5.60;99.90
51637;DHT22;37713;53.254;6.460;2023-02-01T00:43:58;5.60;99.90
51637;DHT22;37713;53.254;6.460;2023-02-01T00:46:24;5.60;99.90
51637;DHT22;37713;53.254;6.460;2023-02-01T00:48:50;5.60;99.90
51637;DHT22;37713;53.254;6.460;2023-02-01T00:51:25;5.60;99.90
51637;DHT22;37713;53.254;6.460;2023-02-01T00:53:52;5.60;99.90
51637;DHT22;37713;53.254;6.460;2023-02-01T00:56:18;5.60;99.90
51637;DHT22;37713;53.254;6.460;2023-02-01T00:58:44;5.60;99.90
51637;DHT22;37713;53.254;6.460;2023-02-01T01:01:21;5.60;99.90
51637;DHT22;37713;53.254;6.460;2023-02-01T01:03:53;5.60;99.90
51637;DHT22;37713;53.254;6.460;2023-02-01T01:06:21;5.60;99.90
51637;DHT22;37713;53.254;6.460;2023-02-01T01:08:47;5.60;99.90
51637;DHT22;37713;53.254;6.460;2023-02-01T01:11:22;5.60;99.90
51637;DHT22;37713;53.254;6.460;2023-02-01T01:13:50;5.60;99.90
51637;DHT22;37713;53.254;6.460;2023-02-01T01:16:18;5.70;99.90
51637;DHT22;37713;53.254;6.460;2023-02-01T01:18:44;5.70;99.90
51637;DHT22;37713;53.254;6.460;2023-02-01T01:21:13;5.70;99.90
51637;DHT22;37713;53.254;6.460;2023-02-01T01:23:40;5.70;99.90
51637;DHT22;37713;53.254;6.460;2023-02-01T01:26:08;5.70;99.90
51637;DHT22;37713;53.254;6.460;2023-02-01T01:28:35;5.70;99.90
51637;DHT22;37713;53.254;6.460;2023-02-01T01:31:01;5.70;99.90
51637;DHT22;37713;53.254;6.460;2023-02-01T01:33:27;5.70;99.90
51637;DHT22;37713;53.254;6.460;2023-02-01T01:35:52;5.70;99.90
51637;DHT22;37713;53.254;6.460;2023-02-01T01:38:18;5.70;99.90
51637;DHT22;37713;53.254;6.460;2023-02-01T01:40:48;5.70;99.90
51637;DHT22;37713;53.254;6.460;2023-02-01T01:43:21;5.70;99.90
51637;DHT22;37713;53.254;6.460;2023-02-01T01:45:50;5.60;99.90
51637;DHT22;37713;53.254;6.460;2023-02-01T01:48:28;5.60;99.90
51637;DHT22;37713;53.254;6.460;2023-02-01T01:51:05;5.60;99.90
51637;DHT22;37713;53.254;6.460;2023-02-01T01:53:38;5.60;99.90
51637;DHT22;37713;53.254;6.460;2023-02-01T01:56:06;5.50;99.90
51637;DHT22;37713;53.254;6.460;2023-02-01T01:58:33;5.50;99.90
51637;DHT22;37713;53.254;6.460;2023-02-01T02:00:59;5.50;99.90
51637;DHT22;37713;53.254;6.460;2023-02-01T02:03:30;5.40;99.90
51637;DHT22;37713;53.254;6.460;2023-02-01T02:06:01;5.40;99.90
51637;DHT22;37713;53.254;6.460;2023-02-01T02:08:28;5.40;99.90
51637;DHT22;37713;53.254;6.460;2023-02-01T02:10:54;5.40;99.90
51637;DHT22;37713;53.254;6.460;2023-02-01T02:16:19;5.40;99.90
51637;DHT22;37713;53.254;6.460;2023-02-01T02:25:20;5.40;99.90
51637;DHT22;37713;53.254;6.460;2023-02-01T02:39:11;5.30;99.90
51637;DHT22;37713;53.254;6.460;2023-02-01T02:41:57;5.30;99.90
51637;DHT22;37713;53.254;6.460;2023-02-01T02:47:56;5.40;99.90
51637;DHT22;37713;53.254;6.460;2023-02-01T02:50:37;5.40;99.90
51637;DHT22;37713;53.254;6.460;2023-02-01T02:53:37;5.40;99.90
51637;DHT22;37713;53.254;6.460;2023-02-01T02:56:23;5.40;99.90
51637;DHT22;37713;53.254;6.460;2023-02-01T02:59:11;5.50;99.90
51637;DHT22;37713;53.254;6.460;2023-02-01T03:01:57;5.50;99.90
51637;DHT22;37713;53.254;6.460;2023-02-01T03:04:42;5.50;99.90
51637;DHT22;37713;53.254;6.460;2023-02-01T03:10:30;5.60;99.90
51637;DHT22;37713;53.254;6.460;2023-02-01T03:13:10;5.60;99.90
51637;DHT22;37713;53.254;6.460;2023-02-01T03:21:00;5.70;99.90
51637;DHT22;37713;53.254;6.460;2023-02-01T03:23:31;5.70;99.90
51637;DHT22;37713;53.254;6.460;2023-02-01T03:26:01;5.70;99.90
51637;DHT22;37713;53.254;6.460;2023-02-01T03:28:29;5.70;99.90
51637;DHT22;37713;53.254;6.460;2023-02-01T03:30:55;5.70;99.90
51637;DHT22;37713;53.254;6.460;2023-02-01T03:33:23;5.70;99.90
51637;DHT22;37713;53.254;6.460;2023-02-01T03:36:15;5.70;99.90
51637;DHT22;37713;53.254;6.460;2023-02-01T03:39:04;5.70;99.90
51637;DHT22;37713;53.254;6.460;2023-02-01T03:44:57;5.70;99.90
51637;DHT22;37713;53.254;6.460;2023-02-01T03:47:25;5.70;99.90
51637;DHT22;37713;53.254;6.460;2023-02-01T03:50:07;5.70;99.90
51637;DHT22;37713;53.254;6.460;2023-02-01T03:55:05;5.60;99.90
51637;DHT22;37713;53.254;6.460;2023-02-01T03:57:34;5.60;99.90
51637;DHT22;37713;53.254;6.460;2023-02-01T04:00:13;5.60;99.90
51637;DHT22;37713;53.254;6.460;2023-02-01T04:02:40;5.60;99.90
51637;DHT22;37713;53.254;6.460;2023-02-01T04:05:06;5.60;99.90
51637;DHT22;37713;53.254;6.460;2023-02-01T04:07:32;5.50;99.90
51637;DHT22;37713;53.254;6.460;2023-02-01T04:09:58;5.60;99.90
51637;DHT22;37713;53.254;6.460;2023-02-01T04:12:24;5.60;99.90
51637;DHT22;37713;53.254;6.460;2023-02-01T04:14:50;5.60;99.90
51637;DHT22;37713;53.254;6.460;2023-02-01T04:17:16;5.60;99.90
51637;DHT22;37713;53.254;6.460;2023-02-01T04:19:42;5.60;99.90
51637;DHT22;37713;53.254;6.460;2023-02-01T04:22:08;5.60;99.90
51637;DHT22;37713;53.254;6.460;2023-02-01T04:24:33;5.60;99.90
51637;DHT22;37713;53.254;6.460;2023-02-01T04:26:59;5.60;99.90
51637;DHT22;37713;53.254;6.460;2023-02-01T04:29:25;5.50;99.90
51637;DHT22;37713;53.254;6.460;2023-02-01T04:31:51;5.50;99.90
51637;DHT22;37713;53.254;6.460;2023-02-01T04:34:17;5.50;99.90
51637;DHT22;37713;53.254;6.460;2023-02-01T04:36:42;5.50;99.90
51637;DHT22;37713;53.254;6.460;2023-02-01T04:39:09;5.50;99.90
51637;DHT22;37713;53.254;6.460;2023-02-01T04:41:35;5.50;99.90
51637;DHT22;37713;53.254;6.460;2023-02-01T04:44:01;5.50;99.90
51637;DHT22;37713;53.254;6.460;2023-02-01T04:46:27;5.50;99.90
51637;DHT22;37713;53.254;6.460;2023-02-01T04:48:53;5.50;99.90
51637;DHT22;37713;53.254;6.460;2023-02-01T04:51:19;5.50;99.90
51637;DHT22;37713;53.254;6.460;2023-02-01T04:53:45;5.50;99.90
51637;DHT22;37713;53.254;6.460;2023-02-01T04:56:11;5.40;99.90
51637;DHT22;37713;53.254;6.460;2023-02-01T04:58:37;5.40;99.90
51637;DHT22;37713;53.254;6.460;2023-02-01T05:01:04;5.40;99.90
51637;DHT22;37713;53.254;6.460;2023-02-01T05:03:34;5.30;99.90
51637;DHT22;37713;53.254;6.460;2023-02-01T05:06:00;5.30;99.90
51637;DHT22;37713;53.254;6.460;2023-02-01T05:08:26;5.30;99.90
51637;DHT22;37713;53.254;6.460;2023-02-01T05:10:54;5.30;99.90
51637;DHT22;37713;53.254;6.460;2023-02-01T05:13:20;5.30;99.90
51637;DHT22;37713;53.254;6.460;2023-02-01T05:16:04;5.30;99.90
51637;DHT22;37713;53.254;6.460;2023-02-01T05:18:30;5.30;99.90
51637;DHT22;37713;53.254;6.460;2023-02-01T05:20:56;5.30;99.90
51637;DHT22;37713;53.254;6.460;2023-02-01T05:23:22;5.40;99.90
51637;DHT22;37713;53.254;6.460;2023-02-01T05:25:47;5.40;99.90
51637;DHT22;37713;53.254;6.460;2023-02-01T05:28:13;5.50;99.90
51637;DHT22;37713;53.254;6.460;2023-02-01T05:30:39;5.50;99.90
51637;DHT22;37713;53.254;6.460;2023-02-01T05:33:05;5.60;99.90
51637;DHT22;37713;53.254;6.460;2023-02-01T05:35:31;5.60;99.90
51637;DHT22;37713;53.254;6.460;2023-02-01T05:37:57;5.60;99.90
51637;DHT22;37713;53.254;6.460;2023-02-01T05:40:23;5.70;99.90
51637;DHT22;37713;53.254;6.460;2023-02-01T05:42:49;5.70;99.90
51637;DHT22;37713;53.254;6.460;2023-02-01T05:45:14;5.70;99.90
51637;DHT22;37713;53.254;6.460;2023-02-01T05:47:40;5.70;99.90
51637;DHT22;37713;53.254;6.460;2023-02-01T05:50:07;5.70;99.90
51637;DHT22;37713;53.254;6.460;2023-02-01T05:52:33;5.70;99.90
51637;DHT22;37713;53.254;6.460;2023-02-01T05:54:59;5.60;99.90
51637;DHT22;37713;53.254;6.460;2023-02-01T05:57:25;5.60;99.90
51637;DHT22;37713;53.254;6.460;2023-02-01T05:59:50;5.50;99.90
51637;DHT22;37713;53.254;6.460;2023-02-01T06:02:16;5.50;99.90
51637;DHT22;37713;53.254;6.460;2023-02-01T06:04:42;5.40;99.90
51637;DHT22;37713;53.254;6.460;2023-02-01T06:07:09;5.40;99.90
51637;DHT22;37713;53.254;6.460;2023-02-01T06:09:36;5.40;99.90
51637;DHT22;37713;53.254;6.460;2023-02-01T06:12:03;5.50;99.90
51637;DHT22;37713;53.254;6.460;2023-02-01T06:14:29;5.40;99.90
51637;DHT22;37713;53.254;6.460;2023-02-01T06:16:55;5.40;99.90
51637;DHT22;37713;53.254;6.460;2023-02-01T06:19:22;5.40;99.90
51637;DHT22;37713;53.254;6.460;2023-02-01T06:21:48;5.40;99.90
51637;DHT22;37713;53.254;6.460;2023-02-01T06:24:14;5.40;99.90
51637;DHT22;37713;53.254;6.460;2023-02-01T06:26:40;5.40;99.90
51637;DHT22;37713;53.254;6.460;2023-02-01T06:29:12;5.40;99.90
51637;DHT22;37713;53.254;6.460;2023-02-01T06:31:38;5.40;99.90
51637;DHT22;37713;53.254;6.460;2023-02-01T06:34:04;5.50;99.90
51637;DHT22;37713;53.254;6.460;2023-02-01T06:36:30;5.60;99.90
51637;DHT22;37713;53.254;6.460;2023-02-01T06:38:56;5.60;99.90
51637;DHT22;37713;53.254;6.460;2023-02-01T06:41:22;5.60;99.90
51637;DHT22;37713;53.254;6.460;2023-02-01T06:43:48;5.60;99.90
51637;DHT22;37713;53.254;6.460;2023-02-01T06:46:14;5.60;99.90
51637;DHT22;37713;53.254;6.460;2023-02-01T06:48:40;5.60;99.90
51637;DHT22;37713;53.254;6.460;2023-02-01T06:51:23;5.60;99.90
51637;DHT22;37713;53.254;6.460;2023-02-01T06:53:49;5.70;99.90
51637;DHT22;37713;53.254;6.460;2023-02-01T06:56:15;5.70;99.90
51637;DHT22;37713;53.254;6.460;2023-02-01T06:58:41;5.70;99.90
51637;DHT22;37713;53.254;6.460;2023-02-01T07:01:08;5.70;99.90
51637;DHT22;37713;53.254;6.460;2023-02-01T07:03:35;5.70;99.90
51637;DHT22;37713;53.254;6.460;2023-02-01T07:06:01;5.70;99.90
51637;DHT22;37713;53.254;6.460;2023-02-01T07:08:28;5.70;99.90
51637;DHT22;37713;53.254;6.460;2023-02-01T07:10:54;5.70;99.90
51637;DHT22;37713;53.254;6.460;2023-02-01T07:13:20;5.70;99.90
51637;DHT22;37713;53.254;6.460;2023-02-01T07:15:46;5.70;99.90
51637;DHT22;37713;53.254;6.460;2023-02-01T07:18:14;5.70;99.90
51637;DHT22;37713;53.254;6.460;2023-02-01T07:20:40;5.70;99.90
51637;DHT22;37713;53.254;6.460;2023-02-01T07:23:11;5.70;99.90
51637;DHT22;37713;53.254;6.460;2023-02-01T07:25:38;5.70;99.90
51637;DHT22;37713;53.254;6.460;2023-02-01T07:28:04;5.60;99.90
51637;DHT22;37713;53.254;6.460;2023-02-01T07:30:29;5.60;99.90
51637;DHT22;37713;53.254;6.460;2023-02-01T07:32:55;5.60;99.90
51637;DHT22;37713;53.254;6.460;2023-02-01T07:35:24;5.60;99.90
51637;DHT22;37713;53.254;6.460;2023-02-01T07:37:50;5.50;99.90
51637;DHT22;37713;53.254;6.460;2023-02-01T07:40:16;5.60;99.90
51637;DHT22;37713;53.254;6.460;2023-02-01T07:42:43;5.50;99.90
51637;DHT22;37713;53.254;6.460;2023-02-01T07:45:09;5.60;99.90
51637;DHT22;37713;53.254;6.460;2023-02-01T07:47:35;5.60;99.90
51637;DHT22;37713;53.254;6.460;2023-02-01T07:50:01;5.60;99.90
51637;DHT22;37713;53.254;6.460;2023-02-01T07:52:30;5.70;99.90
51637;DHT22;37713;53.254;6.460;2023-02-01T07:54:56;5.70;99.90
51637;DHT22;37713;53.254;6.460;2023-02-01T07:57:21;5.70;99.90
51637;DHT22;37713;53.254;6.460;2023-02-01T07:59:47;5.70;99.90
51637;DHT22;37713;53.254;6.460;2023-02-01T08:02:31;5.70;99.90
51637;DHT22;37713;53.254;6.460;2023-02-01T08:04:57;5.70;99.90
51637;DHT22;37713;53.254;6.460;2023-02-01T08:07:23;5.70;99.90
51637;DHT22;37713;53.254;6.460;2023-02-01T08:09:49;5.70;99.90
51637;DHT22;37713;53.254;6.460;2023-02-01T08:12:14;5.80;99.90
51637;DHT22;37713;53.254;6.460;2023-02-01T08:14:40;5.80;99.90
51637;DHT22;37713;53.254;6.460;2023-02-01T08:17:07;5.80;99.90
51637;DHT22;37713;53.254;6.460;2023-02-01T08:19:32;5.80;99.90
51637;DHT22;37713;53.254;6.460;2023-02-01T08:21:59;5.80;99.90
51637;DHT22;37713;53.254;6.460;2023-02-01T08:24:25;5.80;99.90
51637;DHT22;37713;53.254;6.460;2023-02-01T08:26:51;5.80;99.90
51637;DHT22;37713;53.254;6.460;2023-02-01T08:29:17;5.80;99.90
51637;DHT22;37713;53.254;6.460;2023-02-01T08:31:42;5.90;99.90
51637;DHT22;37713;53.254;6.460;2023-02-01T08:34:09;5.80;99.90
51637;DHT22;37713;53.254;6.460;2023-02-01T08:36:35;5.90;99.90
51637;DHT22;37713;53.254;6.460;2023-02-01T08:39:01;5.90;99.90
51637;DHT22;37713;53.254;6.460;2023-02-01T08:41:31;5.90;99.90
51637;DHT22;37713;53.254;6.460;2023-02-01T08:43:57;5.90;99.90
51637;DHT22;37713;53.254;6.460;2023-02-01T08:46:23;5.90;99.90
51637;DHT22;37713;53.254;6.460;2023-02-01T08:48:49;6.00;99.90
51637;DHT22;37713;53.254;6.460;2023-02-01T08:51:17;6.00;99.90
51637;DHT22;37713;53.254;6.460;2023-02-01T08:53:43;6.00;99.90
51637;DHT22;37713;53.254;6.460;2023-02-01T08:56:11;6.00;99.90
51637;DHT22;37713;53.254;6.460;2023-02-01T08:58:37;6.00;99.90
51637;DHT22;37713;53.254;6.460;2023-02-01T09:01:11;6.00;99.90
51637;DHT22;37713;53.254;6.460;2023-02-01T09:03:37;6.00;99.90
51637;DHT22;37713;53.254;6.460;2023-02-01T09:06:06;6.00;99.90
51637;DHT22;37713;53.254;6.460;2023-02-01T09:08:33;6.00;99.90
51637;DHT22;37713;53.254;6.460;2023-02-01T09:11:07;6.00;99.90
51637;DHT22;37713;53.254;6.460;2023-02-01T09:13:33;6.00;99.90
51637;DHT22;37713;53.254;6.460;2023-02-01T09:16:01;6.00;99.90
51637;DHT22;37713;53.254;6.460;2023-02-01T09:18:27;6.00;99.90
51637;DHT22;37713;53.254;6.460;2023-02-01T09:20:52;6.00;99.90
51637;DHT22;37713;53.254;6.460;2023-02-01T09:23:18;6.00;99.90
51637;DHT22;37713;53.254;6.460;2023-02-01T09:25:46;6.10;99.90
51637;DHT22;37713;53.254;6.460;2023-02-01T09:28:11;6.10;99.90
51637;DHT22;37713;53.254;6.460;2023-02-01T09:30:37;6.10;99.90
51637;DHT22;37713;53.254;6.460;2023-02-01T09:33:04;6.10;99.90
51637;DHT22;37713;53.254;6.460;2023-02-01T09:35:30;6.20;99.90
51637;DHT22;37713;53.254;6.460;2023-02-01T09:37:56;6.20;99.90
51637;DHT22;37713;53.254;6.460;2023-02-01T09:40:22;6.20;99.90
51637;DHT22;37713;53.254;6.460;2023-02-01T09:43:33;6.20;99.90
51637;DHT22;37713;53.254;6.460;2023-02-01T09:46:26;6.20;99.90
51637;DHT22;37713;53.254;6.460;2023-02-01T09:48:55;6.10;99.90
51637;DHT22;37713;53.254;6.460;2023-02-01T09:51:30;6.10;99.90
51637;DHT22;37713;53.254;6.460;2023-02-01T09:54:01;6.10;99.90
51637;DHT22;37713;53.254;6.460;2023-02-01T09:56:41;6.10;99.90
51637;DHT22;37713;53.254;6.460;2023-02-01T10:01:36;6.00;99.90
51637;DHT22;37713;53.254;6.460;2023-02-01T10:04:05;6.00;99.90
51637;DHT22;37713;53.254;6.460;2023-02-01T10:06:51;6.00;99.90
51637;DHT22;37713;53.254;6.460;2023-02-01T10:09:44;5.90;99.90
51637;DHT22;37713;53.254;6.460;2023-02-01T10:12:52;5.90;99.90
51637;DHT22;37713;53.254;6.460;2023-02-01T10:15:24;5.80;99.90
51637;DHT22;37713;53.254;6.460;2023-02-01T10:18:18;5.80;99.90
51637;DHT22;37713;53.254;6.460;2023-02-01T10:21:12;5.80;99.90
51637;DHT22;37713;53.254;6.460;2023-02-01T10:26:44;5.80;99.90
51637;DHT22;37713;53.254;6.460;2023-02-01T10:29:18;5.80;99.90
51637;DHT22;37713;53.254;6.460;2023-02-01T10:31:45;5.90;99.90
51637;DHT22;37713;53.254;6.460;2023-02-01T10:34:27;5.90;99.90
51637;DHT22;37713;53.254;6.460;2023-02-01T10:39:34;6.00;99.90
51637;DHT22;37713;53.254;6.460;2023-02-01T10:42:00;6.00;99.90
51637;DHT22;37713;53.254;6.460;2023-02-01T10:44:28;6.10;99.90
51637;DHT22;37713;53.254;6.460;2023-02-01T10:46:55;6.20;99.90
51637;DHT22;37713;53.254;6.460;2023-02-01T10:49:32;6.30;99.90
51637;DHT22;37713;53.254;6.460;2023-02-01T10:52:16;6.40;99.90
51637;DHT22;37713;53.254;6.460;2023-02-01T10:54:42;6.40;99.90
51637;DHT22;37713;53.254;6.460;2023-02-01T10:57:22;6.50;99.90
51637;DHT22;37713;53.254;6.460;2023-02-01T10:59:50;6.60;99.90
51637;DHT22;37713;53.254;6.460;2023-02-01T11:02:26;6.60;99.90
51637;DHT22;37713;53.254;6.460;2023-02-01T11:05:01;6.60;99.90
51637;DHT22;37713;53.254;6.460;2023-02-01T11:07:29;6.60;99.90
51637;DHT22;37713;53.254;6.460;2023-02-01T11:09:55;6.50;99.90
51637;DHT22;37713;53.254;6.460;2023-02-01T11:12:53;6.40;99.90
51637;DHT22;37713;53.254;6.460;2023-02-01T11:15:21;6.30;99.90
51637;DHT22;37713;53.254;6.460;2023-02-01T11:17:49;6.20;99.90
51637;DHT22;37713;53.254;6.460;2023-02-01T11:22:56;6.20;99.90
51637;DHT22;37713;53.254;6.460;2023-02-01T11:25:23;6.20;99.90
51637;DHT22;37713;53.254;6.460;2023-02-01T11:27:50;6.10;99.90
51637;DHT22;37713;53.254;6.460;2023-02-01T11:30:22;6.10;99.90
51637;DHT22;37713;53.254;6.460;2023-02-01T11:32:52;6.10;99.90
51637;DHT22;37713;53.254;6.460;2023-02-01T11:35:20;6.20;99.90
51637;DHT22;37713;53.254;6.460;2023-02-01T11:37:56;6.30;99.90
51637;DHT22;37713;53.254;6.460;2023-02-01T11:40:35;6.30;99.90
51637;DHT22;37713;53.254;6.460;2023-02-01T11:43:12;6.30;99.90
51637;DHT22;37713;53.254;6.460;2023-02-01T11:45:39;6.40;99.90
51637;DHT22;37713;53.254;6.460;2023-02-01T11:48:10;6.50;99.90
51637;DHT22;37713;53.254;6.460;2023-02-01T11:53:31;5.90;99.90
51637;DHT22;37713;53.254;6.460;2023-02-01T11:56:17;5.50;99.90
51637;DHT22;37713;53.254;6.460;2023-02-01T12:02:08;5.20;99.90
51637;DHT22;37713;53.254;6.460;2023-02-01T12:04:46;5.00;99.90
51637;DHT22;37713;53.254;6.460;2023-02-01T12:16:10;6.10;99.90
51637;DHT22;37713;53.254;6.460;2023-02-01T12:27:05;6.90;99.90
51637;DHT22;37713;53.254;6.460;2023-02-01T12:46:27;7.40;99.90
51637;DHT22;37713;53.254;6.460;2023-02-01T12:51:23;7.30;99.90
51637;DHT22;37713;53.254;6.460;2023-02-01T12:54:01;7.30;99.90
51637;DHT22;37713;53.254;6.460;2023-02-01T12:56:41;7.40;99.90
51637;DHT22;37713;53.254;6.460;2023-02-01T12:59:25;7.40;99.90
51637;DHT22;37713;53.254;6.460;2023-02-01T13:02:01;7.40;99.90
51637;DHT22;37713;53.254;6.460;2023-02-01T13:04:33;7.40;99.90
51637;DHT22;37713;53.254;6.460;2023-02-01T13:13:19;7.50;99.90
51637;DHT22;37713;53.254;6.460;2023-02-01T13:15:58;7.40;99.90
51637;DHT22;37713;53.254;6.460;2023-02-01T13:18:26;7.50;99.90
51637;DHT22;37713;53.254;6.460;2023-02-01T13:21:05;7.50;99.90
51637;DHT22;37713;53.254;6.460;2023-02-01T13:23:38;7.60;99.90
51637;DHT22;37713;53.254;6.460;2023-02-01T13:26:04;7.60;99.90
51637;DHT22;37713;53.254;6.460;2023-02-01T13:37:12;7.60;99.90
51637;DHT22;37713;53.254;6.460;2023-02-01T13:42:28;7.50;99.90
51637;DHT22;37713;53.254;6.460;2023-02-01T13:45:13;7.50;99.90
51637;DHT22;37713;53.254;6.460;2023-02-01T13:47:43;7.60;99.90
51637;DHT22;37713;53.254;6.460;2023-02-01T13:52:58;7.50;99.90
51637;DHT22;37713;53.254;6.460;2023-02-01T13:55:31;7.40;99.90
51637;DHT22;37713;53.254;6.460;2023-02-01T13:58:10;7.40;99.90
51637;DHT22;37713;53.254;6.460;2023-02-01T14:00:39;7.40;99.90
51637;DHT22;37713;53.254;6.460;2023-02-01T14:10:54;7.30;99.90
51637;DHT22;37713;53.254;6.460;2023-02-01T14:21:47;7.30;99.90
51637;DHT22;37713;53.254;6.460;2023-02-01T14:24:22;7.30;99.90
51637;DHT22;37713;53.254;6.460;2023-02-01T14:26:51;7.20;99.90
51637;DHT22;37713;53.254;6.460;2023-02-01T14:29:36;7.20;99.90
51637;DHT22;37713;53.254;6.460;2023-02-01T14:37:32;7.10;99.90
51637;DHT22;37713;53.254;6.460;2023-02-01T14:40:02;7.20;99.90
51637;DHT22;37713;53.254;6.460;2023-02-01T14:42:51;7.10;99.90
51637;DHT22;37713;53.254;6.460;2023-02-01T14:50:49;7.00;99.90
51637;DHT22;37713;53.254;6.460;2023-02-01T14:53:45;7.00;99.90
51637;DHT22;37713;53.254;6.460;2023-02-01T14:56:15;6.90;99.90
51637;DHT22;37713;53.254;6.460;2023-02-01T14:59:13;6.80;99.90
51637;DHT22;37713;53.254;6.460;2023-02-01T15:01:50;6.70;99.90
51637;DHT22;37713;53.254;6.460;2023-02-01T15:04:18;6.70;99.90
51637;DHT22;37713;53.254;6.460;2023-02-01T15:07:05;6.70;99.90
51637;DHT22;37713;53.254;6.460;2023-02-01T15:09:36;6.70;99.90
51637;DHT22;37713;53.254;6.460;2023-02-01T15:12:15;6.70;99.90
51637;DHT22;37713;53.254;6.460;2023-02-01T15:14:45;6.70;99.90
51637;DHT22;37713;53.254;6.460;2023-02-01T15:17:25;6.80;99.90
51637;DHT22;37713;53.254;6.460;2023-02-01T15:19:56;6.80;99.90
51637;DHT22;37713;53.254;6.460;2023-02-01T15:22:22;6.90;99.90
51637;DHT22;37713;53.254;6.460;2023-02-01T15:24:53;6.90;99.90
51637;DHT22;37713;53.254;6.460;2023-02-01T15:27:20;6.90;99.90
51637;DHT22;37713;53.254;6.460;2023-02-01T15:29:46;6.90;99.90
51637;DHT22;37713;53.254;6.460;2023-02-01T15:32:47;6.90;99.90
51637;DHT22;37713;53.254;6.460;2023-02-01T15:35:33;6.90;99.90
51637;DHT22;37713;53.254;6.460;2023-02-01T15:43:43;6.70;99.90
51637;DHT22;37713;53.254;6.460;2023-02-01T15:46:12;6.70;99.90
51637;DHT22;37713;53.254;6.460;2023-02-01T15:48:44;6.60;99.90
51637;DHT22;37713;53.254;6.460;2023-02-01T15:51:13;6.60;99.90
51637;DHT22;37713;53.254;6.460;2023-02-01T15:53:57;6.50;99.90
51637;DHT22;37713;53.254;6.460;2023-02-01T15:56:28;6.40;99.90
51637;DHT22;37713;53.254;6.460;2023-02-01T15:59:01;6.40;99.90
51637;DHT22;37713;53.254;6.460;2023-02-01T16:01:27;6.30;99.90
51637;DHT22;37713;53.254;6.460;2023-02-01T16:04:19;6.30;99.90
51637;DHT22;37713;53.254;6.460;2023-02-01T16:06:54;6.20;99.90
51637;DHT22;37713;53.254;6.460;2023-02-01T16:09:34;6.20;99.90
51637;DHT22;37713;53.254;6.460;2023-02-01T16:12:02;6.20;99.90
51637;DHT22;37713;53.254;6.460;2023-02-01T16:14:29;6.10;99.90
51637;DHT22;37713;53.254;6.460;2023-02-01T16:16:57;6.00;99.90
51637;DHT22;37713;53.254;6.460;2023-02-01T16:19:23;6.00;99.90
51637;DHT22;37713;53.254;6.460;2023-02-01T16:21:54;5.90;99.90
51637;DHT22;37713;53.254;6.460;2023-02-01T16:24:20;5.90;99.90
51637;DHT22;37713;53.254;6.460;2023-02-01T16:26:48;5.90;99.90
51637;DHT22;37713;53.254;6.460;2023-02-01T16:29:14;5.90;99.90
51637;DHT22;37713;53.254;6.460;2023-02-01T16:31:42;5.90;99.90
51637;DHT22;37713;53.254;6.460;2023-02-01T16:34:15;5.90;99.90
51637;DHT22;37713;53.254;6.460;2023-02-01T16:36:48;5.90;99.90
51637;DHT22;37713;53.254;6.460;2023-02-01T16:39:18;5.90;99.90
51637;DHT22;37713;53.254;6.460;2023-02-01T16:41:44;5.90;99.90
51637;DHT22;37713;53.254;6.460;2023-02-01T16:44:11;5.80;99.90
51637;DHT22;37713;53.254;6.460;2023-02-01T16:46:44;5.80;99.90
51637;DHT22;37713;53.254;6.460;2023-02-01T16:49:21;5.70;99.90
51637;DHT22;37713;53.254;6.460;2023-02-01T16:51:49;5.70;99.90
51637;DHT22;37713;53.254;6.460;2023-02-01T16:54:16;5.60;99.90
51637;DHT22;37713;53.254;6.460;2023-02-01T16:56:42;5.60;99.90
51637;DHT22;37713;53.254;6.460;2023-02-01T16:59:09;5.60;99.90
51637;DHT22;37713;53.254;6.460;2023-02-01T17:01:35;5.50;99.90
51637;DHT22;37713;53.254;6.460;2023-02-01T17:04:03;5.50;99.90
51637;DHT22;37713;53.254;6.460;2023-02-01T17:06:30;5.50;99.90
51637;DHT22;37713;53.254;6.460;2023-02-01T17:08:58;5.50;99.90
51637;DHT22;37713;53.254;6.460;2023-02-01T17:11:26;5.50;99.90
51637;DHT22;37713;53.254;6.460;2023-02-01T17:13:56;5.40;99.90
51637;DHT22;37713;53.254;6.460;2023-02-01T17:16:28;5.40;99.90
51637;DHT22;37713;53.254;6.460;2023-02-01T17:19:02;5.50;99.90
51637;DHT22;37713;53.254;6.460;2023-02-01T17:21:30;5.50;99.90
51637;DHT22;37713;53.254;6.460;2023-02-01T17:23:56;5.50;99.90
51637;DHT22;37713;53.254;6.460;2023-02-01T17:26:24;5.50;99.90
51637;DHT22;37713;53.254;6.460;2023-02-01T17:28:50;5.50;99.90
51637;DHT22;37713;53.254;6.460;2023-02-01T17:31:16;5.50;99.90
51637;DHT22;37713;53.254;6.460;2023-02-01T17:33:42;5.50;99.90
51637;DHT22;37713;53.254;6.460;2023-02-01T17:36:16;5.40;99.90
51637;DHT22;37713;53.254;6.460;2023-02-01T17:38:43;5.40;99.90
51637;DHT22;37713;53.254;6.460;2023-02-01T17:41:11;5.40;99.90
51637;DHT22;37713;53.254;6.460;2023-02-01T17:43:37;5.40;99.90
51637;DHT22;37713;53.254;6.460;2023-02-01T17:46:12;5.40;99.90
51637;DHT22;37713;53.254;6.460;2023-02-01T17:48:38;5.40;99.90
51637;DHT22;37713;53.254;6.460;2023-02-01T17:51:20;5.40;99.90
51637;DHT22;37713;53.254;6.460;2023-02-01T17:53:47;5.40;99.90
51637;DHT22;37713;53.254;6.460;2023-02-01T17:56:18;5.40;99.90
51637;DHT22;37713;53.254;6.460;2023-02-01T17:58:44;5.30;99.90
51637;DHT22;37713;53.254;6.460;2023-02-01T18:01:17;5.30;99.90
51637;DHT22;37713;53.254;6.460;2023-02-01T18:03:44;5.30;99.90
51637;DHT22;37713;53.254;6.460;2023-02-01T18:06:18;5.30;99.90
51637;DHT22;37713;53.254;6.460;2023-02-01T18:08:44;5.30;99.90
51637;DHT22;37713;53.254;6.460;2023-02-01T18:11:16;5.30;99.90
51637;DHT22;37713;53.254;6.460;2023-02-01T18:13:42;5.30;99.90
51637;DHT22;37713;53.254;6.460;2023-02-01T18:16:30;5.40;99.90
51637;DHT22;37713;53.254;6.460;2023-02-01T18:18:56;5.40;99.90
51637;DHT22;37713;53.254;6.460;2023-02-01T18:21:35;5.50;99.90
51637;DHT22;37713;53.254;6.460;2023-02-01T18:24:02;5.50;99.90
51637;DHT22;37713;53.254;6.460;2023-02-01T18:26:28;5.50;99.90
51637;DHT22;37713;53.254;6.460;2023-02-01T18:28:54;5.60;99.90